sensor_id;sensor_type;location;lat;lon;timestamp;temperature;humidity
12460;DHT22;6295;49.452;8.466;2022-07-12T00:10:21;18.30;99.90
12460;DHT22;6295;49.452;8.466;2022-07-12T00:14:23;18.30;99.90
12460;DHT22;6295;49.452;8.466;2022-07-12T00:18:27;18.20;99.90
12460;DHT22;6295;49.452;8.466;2022-07-12T00:26:31;18.10;99.90
12460;DHT22;6295;49.452;8.466;2022-07-12T00:34:38;17.90;99.90
12460;DHT22;6295;49.452;8.466;2022-07-12T00:38:40;17.80;99.90
12460;DHT22;6295;49.452;8.466;2022-07-12T00:42:43;17.80;99.90
12460;DHT22;6295;49.452;8.466;2022-07-12T00:46:45;17.70;99.90
12460;DHT22;6295;49.452;8.466;2022-07-12T00:50:49;17.70;99.90
12460;DHT22;6295;49.452;8.466;2022-07-12T01:02:57;17.50;99.90
12460;DHT22;6295;49.452;8.466;2022-07-12T01:07:01;17.40;99.90
12460;DHT22;6295;49.452;8.466;2022-07-12T01:15:07;17.30;99.90
12460;DHT22;6295;49.452;8.466;2022-07-12T01:19:12;17.30;99.90
12460;DHT22;6295;49.452;8.466;2022-07-12T01:23:23;17.20;99.90
12460;DHT22;6295;49.452;8.466;2022-07-12T01:27:26;17.20;99.90
12460;DHT22;6295;49.452;8.466;2022-07-12T01:31:29;17.00;99.90
12460;DHT22;6295;49.452;8.466;2022-07-12T01:35:31;17.00;99.90
12460;DHT22;6295;49.452;8.466;2022-07-12T01:39:35;17.00;99.90
12460;DHT22;6295;49.452;8.466;2022-07-12T01:47:40;16.90;99.90
12460;DHT22;6295;49.452;8.466;2022-07-12T01:51:42;16.80;99.90
12460;DHT22;6295;49.452;8.466;2022-07-12T01:55:46;16.80;99.90
12460;DHT22;6295;49.452;8.466;2022-07-12T02:07:54;16.60;99.90
12460;DHT22;6295;49.452;8.466;2022-07-12T02:11:58;16.60;99.90
12460;DHT22;6295;49.452;8.466;2022-07-12T02:20:03;16.50;99.90
12460;DHT22;6295;49.452;8.466;2022-07-12T02:24:06;16.50;99.90
12460;DHT22;6295;49.452;8.466;2022-07-12T02:28:10;16.40;99.90
12460;DHT22;6295;49.452;8.466;2022-07-12T02:32:12;16.40;99.90
12460;DHT22;6295;49.452;8.466;2022-07-12T02:36:14;16.40;99.90
12460;DHT22;6295;49.452;8.466;2022-07-12T02:40:17;16.30;99.90
12460;DHT22;6295;49.452;8.466;2022-07-12T02:44:38;16.30;99.90
12460;DHT22;6295;49.452;8.466;2022-07-12T02:48:40;16.20;99.90
12460;DHT22;6295;49.452;8.466;2022-07-12T02:52:43;16.20;99.90
12460;DHT22;6295;49.452;8.466;2022-07-12T02:56:45;16.20;99.90
12460;DHT22;6295;49.452;8.466;2022-07-12T03:00:48;16.20;99.90
12460;DHT22;6295;49.452;8.466;2022-07-12T03:12:55;16.10;99.90
12460;DHT22;6295;49.452;8.466;2022-07-12T03:16:59;16.00;99.90
12460;DHT22;6295;49.452;8.466;2022-07-12T03:21:01;16.00;99.90
12460;DHT22;6295;49.452;8.466;2022-07-12T03:25:04;16.00;99.90
12460;DHT22;6295;49.452;8.466;2022-07-12T03:29:07;15.90;99.90
12460;DHT22;6295;49.452;8.466;2022-07-12T03:33:11;15.90;99.90
12460;DHT22;6295;49.452;8.466;2022-07-12T03:37:13;15.80;99.90
12460;DHT22;6295;49.452;8.466;2022-07-12T03:41:15;15.80;99.90
12460;DHT22;6295;49.452;8.466;2022-07-12T03:45:17;15.80;99.90
12460;DHT22;6295;49.452;8.466;2022-07-12T03:53:23;15.70;99.90
12460;DHT22;6295;49.452;8.466;2022-07-12T03:57:26;15.70;99.90
12460;DHT22;6295;49.452;8.466;2022-07-12T04:01:28;15.60;99.90
12460;DHT22;6295;49.452;8.466;2022-07-12T04:05:32;15.60;99.90
12460;DHT22;6295;49.452;8.466;2022-07-12T04:09:34;15.60;99.90
12460;DHT22;6295;49.452;8.466;2022-07-12T04:17:38;15.60;99.90
12460;DHT22;6295;49.452;8.466;2022-07-12T04:21:42;15.60;99.90
12460;DHT22;6295;49.452;8.466;2022-07-12T04:25:44;15.70;99.90
12460;DHT22;6295;49.452;8.466;2022-07-12T04:29:47;15.70;99.90
12460;DHT22;6295;49.452;8.466;2022-07-12T04:33:49;15.70;99.90
12460;DHT22;6295;49.452;8.466;2022-07-12T04:37:53;15.70;99.90
12460;DHT22;6295;49.452;8.466;2022-07-12T04:41:55;15.70;99.90
12460;DHT22;6295;49.452;8.466;2022-07-12T04:46:05;15.80;99.90
12460;DHT22;6295;49.452;8.466;2022-07-12T04:50:08;15.80;99.90
12460;DHT22;6295;49.452;8.466;2022-07-12T04:54:12;15.90;99.90
12460;DHT22;6295;49.452;8.466;2022-07-12T04:58:14;16.00;99.90
12460;DHT22;6295;49.452;8.466;2022-07-12T05:02:16;16.10;99.90
12460;DHT22;6295;49.452;8.466;2022-07-12T05:06:18;16.30;99.90
12460;DHT22;6295;49.452;8.466;2022-07-12T05:10:22;16.30;99.90
12460;DHT22;6295;49.452;8.466;2022-07-12T05:14:24;16.50;99.90
12460;DHT22;6295;49.452;8.466;2022-07-12T05:18:26;16.70;99.90
12460;DHT22;6295;49.452;8.466;2022-07-12T05:22:30;16.90;99.90
12460;DHT22;6295;49.452;8.466;2022-07-12T05:26:34;17.00;99.90
12460;DHT22;6295;49.452;8.466;2022-07-12T05:30:36;17.20;99.90
12460;DHT22;6295;49.452;8.466;2022-07-12T05:34:38;17.50;99.90
12460;DHT22;6295;49.452;8.466;2022-07-12T05:38:41;17.50;99.90
12460;DHT22;6295;49.452;8.466;2022-07-12T05:42:44;17.70;99.90
12460;DHT22;6295;49.452;8.466;2022-07-12T05:46:46;17.70;99.90
12460;DHT22;6295;49.452;8.466;2022-07-12T05:50:49;17.90;99.90
12460;DHT22;6295;49.452;8.466;2022-07-12T05:54:51;18.00;99.90
12460;DHT22;6295;49.452;8.466;2022-07-12T05:58:55;18.20;99.90
12460;DHT22;6295;49.452;8.466;2022-07-12T06:06:59;18.60;99.90
12460;DHT22;6295;49.452;8.466;2022-07-12T06:11:01;18.70;99.90
12460;DHT22;6295;49.452;8.466;2022-07-12T06:15:06;18.80;99.90
12460;DHT22;6295;49.452;8.466;2022-07-12T06:19:08;19.00;99.90
12460;DHT22;6295;49.452;8.466;2022-07-12T06:23:10;19.10;99.90
12460;DHT22;6295;49.452;8.466;2022-07-12T06:27:14;19.10;99.90
12460;DHT22;6295;49.452;8.466;2022-07-12T06:35:26;19.30;99.90
12460;DHT22;6295;49.452;8.466;2022-07-12T06:47:36;19.60;99.90
12460;DHT22;6295;49.452;8.466;2022-07-12T06:51:38;19.60;99.90
12460;DHT22;6295;49.452;8.466;2022-07-12T06:55:42;19.70;99.90
12460;DHT22;6295;49.452;8.466;2022-07-12T06:59:47;19.70;99.90
12460;DHT22;6295;49.452;8.466;2022-07-12T07:03:51;19.80;99.90
12460;DHT22;6295;49.452;8.466;2022-07-12T07:28:09;20.40;99.90
12460;DHT22;6295;49.452;8.466;2022-07-12T07:32:12;20.50;99.90
12460;DHT22;6295;49.452;8.466;2022-07-12T07:36:19;20.60;99.90
12460;DHT22;6295;49.452;8.466;2022-07-12T07:40:23;20.70;99.90
12460;DHT22;6295;49.452;8.466;2022-07-12T07:48:30;21.00;99.90
12460;DHT22;6295;49.452;8.466;2022-07-12T07:52:34;21.00;99.90
12460;DHT22;6295;49.452;8.466;2022-07-12T07:56:36;21.10;99.90
12460;DHT22;6295;49.452;8.466;2022-07-12T08:04:42;21.30;99.90
12460;DHT22;6295;49.452;8.466;2022-07-12T08:08:45;21.50;99.90
12460;DHT22;6295;49.452;8.466;2022-07-12T08:12:48;21.70;99.90
12460;DHT22;6295;49.452;8.466;2022-07-12T08:16:51;21.80;99.90
12460;DHT22;6295;49.452;8.466;2022-07-12T08:24:58;22.20;99.90
12460;DHT22;6295;49.452;8.466;2022-07-12T08:29:00;22.20;99.90
12460;DHT22;6295;49.452;8.466;2022-07-12T08:33:02;22.20;99.90
12460;DHT22;6295;49.452;8.466;2022-07-12T08:37:04;22.30;99.90
12460;DHT22;6295;49.452;8.466;2022-07-12T08:41:11;22.30;99.90
12460;DHT22;6295;49.452;8.466;2022-07-12T08:49:17;22.20;99.90
12460;DHT22;6295;49.452;8.466;2022-07-12T09:01:39;22.20;99.90
12460;DHT22;6295;49.452;8.466;2022-07-12T09:05:48;22.30;99.90
12460;DHT22;6295;49.452;8.466;2022-07-12T09:09:52;22.50;99.90
12460;DHT22;6295;49.452;8.466;2022-07-12T09:14:06;22.60;99.90
12460;DHT22;6295;49.452;8.466;2022-07-12T09:18:09;22.90;99.90
12460;DHT22;6295;49.452;8.466;2022-07-12T09:26:19;23.30;99.90
12460;DHT22;6295;49.452;8.466;2022-07-12T09:30:24;23.60;99.90
12460;DHT22;6295;49.452;8.466;2022-07-12T09:34:26;23.70;99.90
12460;DHT22;6295;49.452;8.466;2022-07-12T09:38:50;23.70;99.90
12460;DHT22;6295;49.452;8.466;2022-07-12T09:42:54;23.50;99.90
12460;DHT22;6295;49.452;8.466;2022-07-12T09:46:59;23.40;99.90
12460;DHT22;6295;49.452;8.466;2022-07-12T09:51:03;23.40;99.90
12460;DHT22;6295;49.452;8.466;2022-07-12T09:55:09;23.50;99.90
12460;DHT22;6295;49.452;8.466;2022-07-12T09:59:13;23.80;99.90
12460;DHT22;6295;49.452;8.466;2022-07-12T10:03:18;24.10;99.90
12460;DHT22;6295;49.452;8.466;2022-07-12T10:07:22;24.20;99.90
12460;DHT22;6295;49.452;8.466;2022-07-12T10:11:25;24.20;99.90
12460;DHT22;6295;49.452;8.466;2022-07-12T10:15:30;24.10;99.90
12460;DHT22;6295;49.452;8.466;2022-07-12T10:19:36;24.20;99.90
12460;DHT22;6295;49.452;8.466;2022-07-12T10:23:38;24.40;99.90
12460;DHT22;6295;49.452;8.466;2022-07-12T10:27:41;24.50;99.90
12460;DHT22;6295;49.452;8.466;2022-07-12T10:31:43;24.70;99.90
12460;DHT22;6295;49.452;8.466;2022-07-12T10:36:02;24.90;99.90
12460;DHT22;6295;49.452;8.466;2022-07-12T10:40:14;25.00;99.90
12460;DHT22;6295;49.452;8.466;2022-07-12T10:44:33;25.20;99.90
12460;DHT22;6295;49.452;8.466;2022-07-12T10:48:35;25.30;99.90
12460;DHT22;6295;49.452;8.466;2022-07-12T10:52:39;25.40;99.90
12460;DHT22;6295;49.452;8.466;2022-07-12T10:56:55;25.50;99.80
12460;DHT22;6295;49.452;8.466;2022-07-12T11:00:58;25.60;99.20
12460;DHT22;6295;49.452;8.466;2022-07-12T11:05:00;25.70;98.80
12460;DHT22;6295;49.452;8.466;2022-07-12T11:09:06;25.80;98.10
12460;DHT22;6295;49.452;8.466;2022-07-12T11:13:20;25.80;97.70
12460;DHT22;6295;49.452;8.466;2022-07-12T11:17:25;25.90;97.30
12460;DHT22;6295;49.452;8.466;2022-07-12T11:21:28;25.80;97.60
12460;DHT22;6295;49.452;8.466;2022-07-12T11:25:31;25.80;97.60
12460;DHT22;6295;49.452;8.466;2022-07-12T11:29:34;25.80;96.60
12460;DHT22;6295;49.452;8.466;2022-07-12T11:33:38;25.90;97.10
12460;DHT22;6295;49.452;8.466;2022-07-12T11:37:48;26.00;97.00
12460;DHT22;6295;49.452;8.466;2022-07-12T11:46:01;26.20;95.60
12460;DHT22;6295;49.452;8.466;2022-07-12T11:54:06;26.30;95.70
12460;DHT22;6295;49.452;8.466;2022-07-12T11:58:10;26.40;95.40
12460;DHT22;6295;49.452;8.466;2022-07-12T12:02:13;26.50;94.60
12460;DHT22;6295;49.452;8.466;2022-07-12T12:06:16;26.50;94.90
12460;DHT22;6295;49.452;8.466;2022-07-12T12:10:18;26.40;93.90
12460;DHT22;6295;49.452;8.466;2022-07-12T12:14:21;26.40;94.30
12460;DHT22;6295;49.452;8.466;2022-07-12T12:18:31;26.40;95.20
12460;DHT22;6295;49.452;8.466;2022-07-12T12:22:35;26.40;94.30
12460;DHT22;6295;49.452;8.466;2022-07-12T12:26:38;26.40;93.60
12460;DHT22;6295;49.452;8.466;2022-07-12T12:30:50;26.50;94.00
12460;DHT22;6295;49.452;8.466;2022-07-12T12:35:05;26.60;95.10
12460;DHT22;6295;49.452;8.466;2022-07-12T12:39:07;26.70;94.40
12460;DHT22;6295;49.452;8.466;2022-07-12T12:43:12;26.90;94.40
12460;DHT22;6295;49.452;8.466;2022-07-12T12:47:16;27.00;93.70
12460;DHT22;6295;49.452;8.466;2022-07-12T12:51:50;27.00;93.10
12460;DHT22;6295;49.452;8.466;2022-07-12T12:55:54;27.00;94.60
12460;DHT22;6295;49.452;8.466;2022-07-12T13:04:03;27.20;93.20
12460;DHT22;6295;49.452;8.466;2022-07-12T13:08:11;27.30;93.00
12460;DHT22;6295;49.452;8.466;2022-07-12T13:12:14;27.30;92.70
12460;DHT22;6295;49.452;8.466;2022-07-12T13:16:16;27.40;92.20
12460;DHT22;6295;49.452;8.466;2022-07-12T13:20:20;27.40;92.20
12460;DHT22;6295;49.452;8.466;2022-07-12T13:24:23;27.50;92.00
12460;DHT22;6295;49.452;8.466;2022-07-12T13:28:26;27.40;91.50
12460;DHT22;6295;49.452;8.466;2022-07-12T13:32:28;27.30;91.80
12460;DHT22;6295;49.452;8.466;2022-07-12T13:36:32;27.40;91.00
12460;DHT22;6295;49.452;8.466;2022-07-12T13:40:34;27.40;91.80
12460;DHT22;6295;49.452;8.466;2022-07-12T13:44:36;27.50;90.60
12460;DHT22;6295;49.452;8.466;2022-07-12T13:48:38;27.50;90.50
12460;DHT22;6295;49.452;8.466;2022-07-12T13:52:42;27.60;92.00
12460;DHT22;6295;49.452;8.466;2022-07-12T13:56:45;27.60;91.30
12460;DHT22;6295;49.452;8.466;2022-07-12T14:04:52;27.80;90.30
12460;DHT22;6295;49.452;8.466;2022-07-12T14:08:55;27.90;91.30
12460;DHT22;6295;49.452;8.466;2022-07-12T14:12:57;27.90;88.00
12460;DHT22;6295;49.452;8.466;2022-07-12T14:17:00;27.90;87.90
12460;DHT22;6295;49.452;8.466;2022-07-12T14:25:08;28.10;88.80
12460;DHT22;6295;49.452;8.466;2022-07-12T14:29:10;28.10;86.10
12460;DHT22;6295;49.452;8.466;2022-07-12T14:33:12;28.20;84.30
12460;DHT22;6295;49.452;8.466;2022-07-12T14:41:20;28.40;85.10
12460;DHT22;6295;49.452;8.466;2022-07-12T14:45:23;28.50;84.60
12460;DHT22;6295;49.452;8.466;2022-07-12T14:49:26;28.50;84.20
12460;DHT22;6295;49.452;8.466;2022-07-12T14:53:32;28.60;84.60
12460;DHT22;6295;49.452;8.466;2022-07-12T14:57:39;28.70;84.50
12460;DHT22;6295;49.452;8.466;2022-07-12T15:01:43;28.90;84.20
12460;DHT22;6295;49.452;8.466;2022-07-12T15:05:47;29.00;82.90
12460;DHT22;6295;49.452;8.466;2022-07-12T15:09:49;29.00;82.80
12460;DHT22;6295;49.452;8.466;2022-07-12T15:13:53;29.10;81.10
12460;DHT22;6295;49.452;8.466;2022-07-12T15:21:59;29.20;81.60
12460;DHT22;6295;49.452;8.466;2022-07-12T15:26:02;29.20;78.80
12460;DHT22;6295;49.452;8.466;2022-07-12T15:30:06;29.30;79.20
12460;DHT22;6295;49.452;8.466;2022-07-12T15:34:08;29.30;78.80
12460;DHT22;6295;49.452;8.466;2022-07-12T15:38:12;29.30;77.30
12460;DHT22;6295;49.452;8.466;2022-07-12T15:42:14;29.40;78.10
12460;DHT22;6295;49.452;8.466;2022-07-12T15:46:17;29.40;79.00
12460;DHT22;6295;49.452;8.466;2022-07-12T15:50:20;29.50;77.80
12460;DHT22;6295;49.452;8.466;2022-07-12T15:54:22;29.50;78.40
12460;DHT22;6295;49.452;8.466;2022-07-12T15:58:27;29.60;79.10
12460;DHT22;6295;49.452;8.466;2022-07-12T16:02:31;29.50;75.80
12460;DHT22;6295;49.452;8.466;2022-07-12T16:06:34;29.40;77.10
12460;DHT22;6295;49.452;8.466;2022-07-12T16:10:36;29.40;77.50
12460;DHT22;6295;49.452;8.466;2022-07-12T16:14:39;29.40;74.90
12460;DHT22;6295;49.452;8.466;2022-07-12T16:18:45;29.40;74.80
12460;DHT22;6295;49.452;8.466;2022-07-12T16:22:47;29.50;74.40
12460;DHT22;6295;49.452;8.466;2022-07-12T16:26:49;29.40;74.00
12460;DHT22;6295;49.452;8.466;2022-07-12T16:30:53;29.50;73.50
12460;DHT22;6295;49.452;8.466;2022-07-12T16:34:59;29.60;74.10
12460;DHT22;6295;49.452;8.466;2022-07-12T16:39:02;29.60;75.30
12460;DHT22;6295;49.452;8.466;2022-07-12T16:43:04;29.60;75.80
12460;DHT22;6295;49.452;8.466;2022-07-12T16:47:06;29.50;76.30
12460;DHT22;6295;49.452;8.466;2022-07-12T16:51:10;29.50;75.60
12460;DHT22;6295;49.452;8.466;2022-07-12T16:55:24;29.50;75.10
12460;DHT22;6295;49.452;8.466;2022-07-12T16:59:26;29.50;73.00
12460;DHT22;6295;49.452;8.466;2022-07-12T17:03:31;29.50;73.30
12460;DHT22;6295;49.452;8.466;2022-07-12T17:07:37;29.60;74.10
12460;DHT22;6295;49.452;8.466;2022-07-12T17:11:42;29.80;74.50
12460;DHT22;6295;49.452;8.466;2022-07-12T17:15:44;29.70;73.80
12460;DHT22;6295;49.452;8.466;2022-07-12T17:19:47;29.70;74.20
12460;DHT22;6295;49.452;8.466;2022-07-12T17:23:51;29.70;73.70
12460;DHT22;6295;49.452;8.466;2022-07-12T17:27:53;29.60;73.50
12460;DHT22;6295;49.452;8.466;2022-07-12T17:31:58;29.60;74.80
12460;DHT22;6295;49.452;8.466;2022-07-12T17:36:02;29.60;75.10
12460;DHT22;6295;49.452;8.466;2022-07-12T17:40:08;29.50;74.10
12460;DHT22;6295;49.452;8.466;2022-07-12T17:44:12;29.30;75.10
12460;DHT22;6295;49.452;8.466;2022-07-12T17:48:14;29.20;76.40
12460;DHT22;6295;49.452;8.466;2022-07-12T17:52:16;29.00;78.60
12460;DHT22;6295;49.452;8.466;2022-07-12T17:56:20;28.70;79.80
12460;DHT22;6295;49.452;8.466;2022-07-12T18:00:23;28.50;81.90
12460;DHT22;6295;49.452;8.466;2022-07-12T18:04:28;28.20;83.40
12460;DHT22;6295;49.452;8.466;2022-07-12T18:08:31;27.90;85.10
12460;DHT22;6295;49.452;8.466;2022-07-12T18:12:36;27.80;87.00
12460;DHT22;6295;49.452;8.466;2022-07-12T18:16:55;27.70;88.30
12460;DHT22;6295;49.452;8.466;2022-07-12T18:21:15;27.70;88.40
12460;DHT22;6295;49.452;8.466;2022-07-12T18:29:22;27.50;90.20
12460;DHT22;6295;49.452;8.466;2022-07-12T18:33:25;27.50;90.90
12460;DHT22;6295;49.452;8.466;2022-07-12T18:37:27;27.50;91.10
12460;DHT22;6295;49.452;8.466;2022-07-12T18:41:29;27.50;91.50
12460;DHT22;6295;49.452;8.466;2022-07-12T18:49:35;27.10;92.90
12460;DHT22;6295;49.452;8.466;2022-07-12T18:53:37;26.90;93.80
12460;DHT22;6295;49.452;8.466;2022-07-12T18:57:40;26.60;95.00
12460;DHT22;6295;49.452;8.466;2022-07-12T19:01:44;26.20;96.30
12460;DHT22;6295;49.452;8.466;2022-07-12T19:17:55;25.10;99.90
12460;DHT22;6295;49.452;8.466;2022-07-12T19:21:57;24.80;99.90
12460;DHT22;6295;49.452;8.466;2022-07-12T19:26:00;24.70;99.90
12460;DHT22;6295;49.452;8.466;2022-07-12T19:30:05;24.40;99.90
12460;DHT22;6295;49.452;8.466;2022-07-12T19:34:09;24.20;99.90
12460;DHT22;6295;49.452;8.466;2022-07-12T19:38:12;24.00;99.90
12460;DHT22;6295;49.452;8.466;2022-07-12T19:42:14;23.90;99.90
12460;DHT22;6295;49.452;8.466;2022-07-12T19:46:16;23.70;99.90
12460;DHT22;6295;49.452;8.466;2022-07-12T19:50:20;23.50;99.90
12460;DHT22;6295;49.452;8.466;2022-07-12T19:54:22;23.30;99.90
12460;DHT22;6295;49.452;8.466;2022-07-12T19:58:24;23.20;99.90
12460;DHT22;6295;49.452;8.466;2022-07-12T20:02:26;23.10;99.90
12460;DHT22;6295;49.452;8.466;2022-07-12T20:06:31;22.90;99.90
12460;DHT22;6295;49.452;8.466;2022-07-12T20:10:34;22.80;99.90
12460;DHT22;6295;49.452;8.466;2022-07-12T20:18:38;22.60;99.90
12460;DHT22;6295;49.452;8.466;2022-07-12T20:22:43;22.40;99.90
12460;DHT22;6295;49.452;8.466;2022-07-12T20:26:46;22.20;99.90
12460;DHT22;6295;49.452;8.466;2022-07-12T20:30:48;22.10;99.90
12460;DHT22;6295;49.452;8.466;2022-07-12T20:34:50;22.00;99.90
12460;DHT22;6295;49.452;8.466;2022-07-12T20:38:53;21.90;99.90
12460;DHT22;6295;49.452;8.466;2022-07-12T20:42:56;21.70;99.90
12460;DHT22;6295;49.452;8.466;2022-07-12T20:46:59;21.60;99.90
12460;DHT22;6295;49.452;8.466;2022-07-12T20:51:01;21.50;99.90
12460;DHT22;6295;49.452;8.466;2022-07-12T20:55:06;21.40;99.90
12460;DHT22;6295;49.452;8.466;2022-07-12T20:59:09;21.30;99.90
12460;DHT22;6295;49.452;8.466;2022-07-12T21:03:12;21.20;99.90
12460;DHT22;6295;49.452;8.466;2022-07-12T21:07:15;21.10;99.90
12460;DHT22;6295;49.452;8.466;2022-07-12T21:11:19;21.00;99.90
12460;DHT22;6295;49.452;8.466;2022-07-12T21:15:21;20.90;99.90
12460;DHT22;6295;49.452;8.466;2022-07-12T21:19:23;20.80;99.90
12460;DHT22;6295;49.452;8.466;2022-07-12T21:23:25;20.70;99.90
12460;DHT22;6295;49.452;8.466;2022-07-12T21:27:30;20.60;99.90
12460;DHT22;6295;49.452;8.466;2022-07-12T21:31:33;20.60;99.90
12460;DHT22;6295;49.452;8.466;2022-07-12T21:39:37;20.40;99.90
12460;DHT22;6295;49.452;8.466;2022-07-12T21:43:41;20.30;99.90
12460;DHT22;6295;49.452;8.466;2022-07-12T21:51:46;20.20;99.90
12460;DHT22;6295;49.452;8.466;2022-07-12T21:55:48;20.10;99.90
12460;DHT22;6295;49.452;8.466;2022-07-12T21:59:52;20.00;99.90
12460;DHT22;6295;49.452;8.466;2022-07-12T22:03:54;20.00;99.90
12460;DHT22;6295;49.452;8.466;2022-07-12T22:07:56;19.90;99.90
12460;DHT22;6295;49.452;8.466;2022-07-12T22:11:58;19.80;99.90
12460;DHT22;6295;49.452;8.466;2022-07-12T22:16:02;19.70;99.90
12460;DHT22;6295;49.452;8.466;2022-07-12T22:20:05;19.60;99.90
12460;DHT22;6295;49.452;8.466;2022-07-12T22:24:08;19.60;99.90
12460;DHT22;6295;49.452;8.466;2022-07-12T22:28:10;19.50;99.90
12460;DHT22;6295;49.452;8.466;2022-07-12T22:36:16;19.40;99.90
12460;DHT22;6295;49.452;8.466;2022-07-12T22:40:18;19.30;99.90
12460;DHT22;6295;49.452;8.466;2022-07-12T22:44:21;19.20;99.90
12460;DHT22;6295;49.452;8.466;2022-07-12T22:52:26;19.10;99.90
12460;DHT22;6295;49.452;8.466;2022-07-12T23:17:46;18.80;99.90
12460;DHT22;6295;49.452;8.466;2022-07-12T23:21:48;18.80;99.90
12460;DHT22;6295;49.452;8.466;2022-07-12T23:29:55;18.70;99.90
12460;DHT22;6295;49.452;8.466;2022-07-12T23:33:57;18.60;99.90
12460;DHT22;6295;49.452;8.466;2022-07-12T23:42:01;18.60;99.90
12460;DHT22;6295;49.452;8.466;2022-07-12T23:46:05;18.50;99.90
12460;DHT22;6295;49.452;8.466;2022-07-12T23:50:08;18.60;99.90
12460;DHT22;6295;49.452;8.466;2022-07-12T23:54:10;18.50;99.90
12460;DHT22;6295;49.452;8.466;2022-07-12T23:58:12;18.60;99.90
